createdAt,value
2017-09-24T00:01:05.182Z,22.8
2017-09-24T00:02:14.195Z,22.68
2017-09-24T00:03:22.889Z,22.7
2017-09-24T00:04:31.907Z,22.73
2017-09-24T00:05:41.245Z,22.75
2017-09-24T00:06:50.261Z,22.75
2017-09-24T00:07:59.596Z,22.72
2017-09-24T00:09:08.613Z,22.72
2017-09-24T00:10:17.946Z,22.72
2017-09-24T00:11:26.644Z,22.76
2017-09-24T00:12:35.661Z,22.69
2017-09-24T00:13:44.677Z,22.7
2017-09-24T00:14:53.374Z,22.72
2017-09-24T00:16:02.712Z,22.7
2017-09-24T00:17:11.727Z,22.68
2017-09-24T00:18:20.423Z,22.72
2017-09-24T00:19:29.755Z,22.72
2017-09-24T00:20:38.448Z,22.7
2017-09-24T00:21:47.467Z,22.66
2017-09-24T00:22:56.481Z,22.7
2017-09-24T00:24:05.175Z,22.66
2017-09-24T00:25:14.510Z,22.66
2017-09-24T00:26:23.526Z,22.69
2017-09-24T00:27:32.221Z,22.7
2017-09-24T00:28:41.241Z,22.72
2017-09-24T00:29:50.255Z,22.78
2017-09-24T00:30:59.590Z,22.7
2017-09-24T00:32:08.928Z,22.76
2017-09-24T00:33:18.263Z,22.72
2017-09-24T00:34:27.915Z,22.76
2017-09-24T00:35:37.250Z,22.7
2017-09-24T00:36:46.586Z,22.7
2017-09-24T00:37:55.282Z,22.73
2017-09-24T00:39:04.303Z,22.76
2017-09-24T00:40:13.320Z,22.72
2017-09-24T00:41:22.341Z,22.69
2017-09-24T00:42:31.359Z,22.7
2017-09-24T00:43:40.373Z,22.7
2017-09-24T00:44:49.066Z,22.7
2017-09-24T00:45:57.762Z,22.72
2017-09-24T00:47:07.099Z,22.65
2017-09-24T00:48:16.114Z,22.68
2017-09-24T00:49:24.807Z,22.62
2017-09-24T00:50:33.821Z,22.72
2017-09-24T00:51:43.475Z,22.62
2017-09-24T00:52:52.810Z,22.66
2017-09-24T00:54:01.826Z,22.63
2017-09-24T00:55:10.840Z,22.68
2017-09-24T00:56:19.856Z,22.69
2017-09-24T00:57:29.193Z,22.68
2017-09-24T00:58:37.888Z,22.66
2017-09-24T00:59:46.905Z,22.66
2017-09-24T01:00:55.611Z,22.59
2017-09-24T01:02:04.306Z,22.68
2017-09-24T01:03:13.641Z,22.68
2017-09-24T01:04:23.294Z,22.62
2017-09-24T01:05:32.334Z,22.66
2017-09-24T01:06:41.353Z,22.66
2017-09-24T01:07:50.048Z,22.6
2017-09-24T01:08:59.383Z,22.57
2017-09-24T01:10:08.397Z,22.63
2017-09-24T01:11:17.734Z,22.59
2017-09-24T01:12:26.431Z,22.54
2017-09-24T01:13:36.090Z,22.57
2017-09-24T01:14:45.743Z,22.53
2017-09-24T01:15:55.077Z,22.62
2017-09-24T01:17:04.090Z,22.54
2017-09-24T01:18:13.745Z,22.6
2017-09-24T01:19:22.439Z,22.51
2017-09-24T01:20:31.136Z,22.54
2017-09-24T01:21:40.472Z,22.54
2017-09-24T01:22:49.171Z,22.51
2017-09-24T01:23:57.866Z,22.53
2017-09-24T01:25:07.526Z,22.54
2017-09-24T01:26:16.542Z,22.5
2017-09-24T01:27:25.557Z,22.54
2017-09-24T01:28:34.892Z,22.51
2017-09-24T01:29:43.907Z,22.53
2017-09-24T01:30:52.923Z,22.55
2017-09-24T01:32:01.935Z,22.53
2017-09-24T01:33:11.590Z,22.45
2017-09-24T01:34:20.924Z,22.44
2017-09-24T01:35:30.260Z,22.54
2017-09-24T01:36:38.954Z,22.43
2017-09-24T01:37:48.609Z,22.45
2017-09-24T01:38:57.303Z,22.44
2017-09-24T01:40:06.316Z,22.51
2017-09-24T01:41:15.333Z,22.45
2017-09-24T01:42:25.314Z,22.43
2017-09-24T01:43:34.330Z,22.45
2017-09-24T01:44:43.024Z,22.41
2017-09-24T01:45:52.041Z,22.41
2017-09-24T01:47:01.694Z,22.41
2017-09-24T01:48:11.029Z,22.44
2017-09-24T01:49:20.366Z,22.41
2017-09-24T01:50:29.378Z,22.44
2017-09-24T01:51:38.427Z,22.44
2017-09-24T01:52:47.439Z,22.44
2017-09-24T01:53:56.774Z,22.44
2017-09-24T01:55:05.468Z,22.33
2017-09-24T01:56:14.161Z,22.45
2017-09-24T01:57:23.179Z,22.36
2017-09-24T01:58:31.874Z,22.43
2017-09-24T01:59:40.888Z,22.35
2017-09-24T02:00:49.905Z,22.36
2017-09-24T02:01:58.919Z,22.43
2017-09-24T02:03:07.615Z,22.33
2017-09-24T02:04:16.631Z,22.38
2017-09-24T02:05:25.968Z,22.41
2017-09-24T02:06:35.297Z,22.33
2017-09-24T02:07:44.628Z,22.43
2017-09-24T02:08:54.285Z,22.39
2017-09-24T02:10:03.297Z,22.38
2017-09-24T02:11:12.641Z,22.41
2017-09-24T02:12:21.656Z,22.38
2017-09-24T02:13:30.680Z,22.41
2017-09-24T02:14:39.690Z,22.44
2017-09-24T02:15:48.703Z,22.35
2017-09-24T02:16:57.719Z,22.38
2017-09-24T02:18:06.427Z,22.36
2017-09-24T02:19:15.441Z,22.35
2017-09-24T02:20:25.093Z,22.29
2017-09-24T02:21:34.434Z,22.28
2017-09-24T02:22:43.772Z,22.28
2017-09-24T02:23:52.784Z,22.32
2017-09-24T02:25:01.799Z,22.26
2017-09-24T02:26:10.814Z,22.3
2017-09-24T02:27:19.827Z,22.33
2017-09-24T02:28:29.166Z,22.3
2017-09-24T02:29:38.498Z,22.43
2017-09-24T02:30:47.515Z,22.3
2017-09-24T02:31:56.213Z,22.25
2017-09-24T02:33:05.925Z,22.28
2017-09-24T02:34:14.623Z,22.26
2017-09-24T02:35:23.963Z,22.26
2017-09-24T02:36:32.657Z,22.3
2017-09-24T02:37:41.680Z,22.25
2017-09-24T02:38:50.695Z,22.26
2017-09-24T02:40:00.681Z,22.3
2017-09-24T02:41:10.015Z,22.23
2017-09-24T02:42:18.710Z,22.23
2017-09-24T02:43:27.726Z,22.25
2017-09-24T02:44:36.421Z,22.29
2017-09-24T02:45:46.127Z,22.28
2017-09-24T02:46:54.823Z,22.26
2017-09-24T02:48:04.164Z,22.29
2017-09-24T02:49:13.499Z,22.29
2017-09-24T02:50:22.194Z,22.25
2017-09-24T02:51:31.209Z,22.28
2017-09-24T02:52:40.225Z,22.3
2017-09-24T02:53:49.566Z,22.28
2017-09-24T02:54:58.588Z,22.25
2017-09-24T02:56:07.929Z,22.26
2017-09-24T02:57:17.595Z,22.25
2017-09-24T02:58:26.610Z,22.13
2017-09-24T02:59:35.624Z,22.22
2017-09-24T03:00:44.954Z,22.22
2017-09-24T03:01:53.968Z,22.18
2017-09-24T03:03:02.985Z,22.23
2017-09-24T03:04:12.320Z,22.18
2017-09-24T03:05:21.018Z,22.18
2017-09-24T03:06:30.382Z,22.17
2017-09-24T03:07:39.398Z,22.23
2017-09-24T03:08:48.413Z,22.17
2017-09-24T03:09:57.426Z,22.13
2017-09-24T03:11:06.441Z,22.13
2017-09-24T03:12:15.780Z,22.2
2017-09-24T03:13:25.127Z,22.22
2017-09-24T03:14:33.824Z,22.25
2017-09-24T03:15:42.866Z,22.22
2017-09-24T03:16:51.533Z,22.14
2017-09-24T03:18:00.226Z,22.17
2017-09-24T03:19:09.241Z,22.23
2017-09-24T03:20:18.573Z,22.28
2017-09-24T03:21:27.589Z,22.18
2017-09-24T03:22:36.283Z,22.11
2017-09-24T03:23:44.977Z,22.14
2017-09-24T03:24:53.670Z,22.2
2017-09-24T03:26:02.685Z,22.15
2017-09-24T03:27:11.379Z,22.2
2017-09-24T03:28:20.390Z,22.11
2017-09-24T03:29:29.723Z,22.14
2017-09-24T03:30:38.741Z,22.18
2017-09-24T03:31:47.756Z,22.15
2017-09-24T03:32:57.090Z,22.2
2017-09-24T03:34:06.103Z,22.13
2017-09-24T03:35:15.117Z,22.2
2017-09-24T03:36:24.132Z,22.25
2017-09-24T03:37:33.465Z,22.17
2017-09-24T03:38:43.118Z,22.11
2017-09-24T03:39:52.772Z,22.22
2017-09-24T03:41:01.787Z,22.2
2017-09-24T03:42:11.447Z,22.23
2017-09-24T03:43:20.142Z,22.15
2017-09-24T03:44:29.476Z,22.23
2017-09-24T03:45:38.807Z,22.26
2017-09-24T03:46:47.823Z,22.26
2017-09-24T03:47:57.796Z,22.23
2017-09-24T03:49:07.453Z,22.25
2017-09-24T03:50:16.785Z,22.28
2017-09-24T03:51:26.438Z,22.28
2017-09-24T03:52:35.455Z,22.22
2017-09-24T03:53:44.471Z,22.29
2017-09-24T03:54:53.486Z,22.28
2017-09-24T03:56:02.817Z,22.28
2017-09-24T03:57:12.473Z,22.23
2017-09-24T03:58:21.171Z,22.29
2017-09-24T03:59:30.193Z,22.3
2017-09-24T04:00:39.526Z,22.39
2017-09-24T04:01:48.222Z,22.3
2017-09-24T04:02:57.560Z,22.32
2017-09-24T04:04:06.574Z,22.32
2017-09-24T04:05:15.590Z,22.3
2017-09-24T04:06:24.928Z,22.28
2017-09-24T04:07:33.623Z,22.35
2017-09-24T04:08:42.636Z,22.38
2017-09-24T04:09:51.354Z,22.44
2017-09-24T04:11:00.664Z,22.39
2017-09-24T04:12:10.320Z,22.44
2017-09-24T04:13:19.014Z,22.38
2017-09-24T04:14:28.673Z,22.39
2017-09-24T04:15:37.687Z,22.33
2017-09-24T04:16:47.029Z,22.38
2017-09-24T04:17:56.364Z,22.36
2017-09-24T04:19:05.059Z,22.38
2017-09-24T04:20:13.757Z,22.39
2017-09-24T04:21:22.776Z,22.35
2017-09-24T04:22:31.471Z,22.36
2017-09-24T04:23:40.489Z,22.36
2017-09-24T04:24:49.821Z,22.44
2017-09-24T04:25:58.516Z,22.38
2017-09-24T04:27:07.215Z,22.48
2017-09-24T04:28:16.231Z,22.38
2017-09-24T04:29:24.927Z,22.39
2017-09-24T04:30:34.901Z,22.45
2017-09-24T04:31:43.918Z,22.41
2017-09-24T04:32:52.614Z,22.47
2017-09-24T04:34:01.309Z,22.43
2017-09-24T04:35:10.327Z,22.47
2017-09-24T04:36:19.663Z,22.45
2017-09-24T04:37:28.681Z,22.43
2017-09-24T04:38:37.375Z,22.47
2017-09-24T04:39:46.071Z,22.45
2017-09-24T04:40:54.763Z,22.51
2017-09-24T04:42:03.456Z,22.5
2017-09-24T04:43:12.471Z,22.51
2017-09-24T04:44:22.124Z,22.54
2017-09-24T04:45:31.778Z,22.53
2017-09-24T04:46:41.114Z,22.53
2017-09-24T04:47:50.128Z,22.5
2017-09-24T04:48:59.788Z,22.47
2017-09-24T04:50:09.124Z,22.55
2017-09-24T04:51:18.139Z,22.53
2017-09-24T04:52:26.833Z,22.53
2017-09-24T04:53:35.529Z,22.55
2017-09-24T04:54:44.546Z,22.54
2017-09-24T04:55:53.560Z,22.54
2017-09-24T04:57:02.255Z,22.54
2017-09-24T04:58:10.949Z,22.53
2017-09-24T04:59:20.284Z,22.54
2017-09-24T05:00:29.300Z,22.57
2017-09-24T05:01:38.313Z,22.59
2017-09-24T05:02:47.007Z,22.59
2017-09-24T05:03:56.022Z,22.59
2017-09-24T05:05:04.716Z,22.59
2017-09-24T05:06:14.048Z,22.59
2017-09-24T05:07:22.743Z,22.6
2017-09-24T05:08:32.073Z,22.63
2017-09-24T05:09:41.092Z,22.63
2017-09-24T05:10:50.106Z,22.65
2017-09-24T05:11:59.758Z,22.62
2017-09-24T05:13:08.772Z,22.65
2017-09-24T05:14:18.108Z,22.68
2017-09-24T05:15:27.442Z,22.68
2017-09-24T05:16:36.140Z,22.66
2017-09-24T05:17:45.473Z,22.68
2017-09-24T05:18:54.808Z,22.7
2017-09-24T05:20:04.141Z,22.72
2017-09-24T05:21:13.790Z,22.69
2017-09-24T05:22:23.122Z,22.72
2017-09-24T05:23:32.135Z,22.72
2017-09-24T05:24:41.156Z,22.69
2017-09-24T05:25:50.816Z,22.69
2017-09-24T05:27:00.154Z,22.69
2017-09-24T05:28:09.811Z,22.73
2017-09-24T05:29:19.467Z,22.7
2017-09-24T05:30:28.488Z,22.68
2017-09-24T05:31:38.144Z,22.7
2017-09-24T05:32:47.480Z,22.7
2017-09-24T05:33:56.175Z,22.7
2017-09-24T05:35:04.873Z,22.72
2017-09-24T05:36:13.887Z,22.72
2017-09-24T05:37:22.901Z,22.72
2017-09-24T05:38:32.235Z,22.68
2017-09-24T05:39:41.247Z,22.72
2017-09-24T05:40:49.946Z,22.75
2017-09-24T05:41:58.641Z,22.73
2017-09-24T05:43:07.981Z,22.68
2017-09-24T05:44:16.675Z,22.7
2017-09-24T05:45:25.692Z,22.73
2017-09-24T05:46:34.391Z,22.73
2017-09-24T05:47:43.726Z,22.65
2017-09-24T05:48:52.747Z,22.7
2017-09-24T05:50:02.079Z,22.7
2017-09-24T05:51:10.773Z,22.7
2017-09-24T05:52:19.468Z,22.69
2017-09-24T05:53:28.485Z,22.72
2017-09-24T05:54:37.819Z,22.75
2017-09-24T05:55:46.836Z,22.7
2017-09-24T05:56:55.540Z,22.81
2017-09-24T05:58:04.554Z,22.66
2017-09-24T05:59:14.206Z,22.72
2017-09-24T06:00:23.544Z,22.66
2017-09-24T06:01:33.198Z,22.73
2017-09-24T06:02:42.532Z,22.73
2017-09-24T06:03:51.870Z,22.75
2017-09-24T06:05:01.214Z,22.69
2017-09-24T06:06:10.231Z,22.81
2017-09-24T06:07:18.925Z,22.7
2017-09-24T06:08:27.622Z,22.72
2017-09-24T06:09:36.957Z,22.73
2017-09-24T06:10:45.649Z,22.72
2017-09-24T06:11:54.663Z,22.69
2017-09-24T06:13:04.003Z,22.7
2017-09-24T06:14:12.702Z,22.68
2017-09-24T06:15:21.396Z,22.63
2017-09-24T06:16:31.374Z,22.65
2017-09-24T06:17:40.394Z,22.7
2017-09-24T06:18:49.408Z,22.68
2017-09-24T06:19:58.425Z,22.69
2017-09-24T06:21:07.442Z,22.72
2017-09-24T06:22:16.457Z,22.7
2017-09-24T06:23:26.145Z,22.66
2017-09-24T06:24:34.841Z,22.7
2017-09-24T06:25:44.172Z,22.8
2017-09-24T06:26:52.870Z,22.68
2017-09-24T06:28:01.889Z,22.72
2017-09-24T06:29:10.586Z,22.66
2017-09-24T06:30:20.237Z,22.66
2017-09-24T06:31:29.890Z,22.72
2017-09-24T06:32:38.586Z,22.8
2017-09-24T06:33:47.283Z,22.75
2017-09-24T06:34:55.983Z,22.73
2017-09-24T06:36:05.000Z,22.78
2017-09-24T06:37:14.339Z,22.75
2017-09-24T06:38:23.032Z,22.81
2017-09-24T06:39:31.728Z,22.8
2017-09-24T06:40:40.742Z,22.76
2017-09-24T06:41:49.757Z,22.8
2017-09-24T06:42:59.099Z,22.8
2017-09-24T06:44:08.752Z,22.76
2017-09-24T06:45:18.084Z,22.8
2017-09-24T06:46:27.100Z,22.84
2017-09-24T06:47:36.443Z,22.76
2017-09-24T06:48:45.140Z,22.84
2017-09-24T06:49:54.485Z,22.84
2017-09-24T06:51:03.504Z,22.85
2017-09-24T06:52:12.843Z,22.78
2017-09-24T06:53:21.890Z,22.8
2017-09-24T06:54:31.229Z,22.84
2017-09-24T06:55:39.926Z,22.87
2017-09-24T06:56:48.622Z,22.91
2017-09-24T06:57:57.961Z,22.78
2017-09-24T06:59:06.976Z,22.85
2017-09-24T07:00:16.629Z,22.85
2017-09-24T07:01:25.969Z,22.76
2017-09-24T07:02:34.985Z,22.8
2017-09-24T07:03:43.997Z,22.85
2017-09-24T07:04:52.693Z,22.85
2017-09-24T07:06:01.710Z,22.91
2017-09-24T07:07:11.042Z,22.81
2017-09-24T07:08:20.378Z,22.83
2017-09-24T07:09:29.708Z,22.85
2017-09-24T07:10:38.405Z,22.87
2017-09-24T07:11:47.419Z,22.83
2017-09-24T07:12:56.756Z,22.87
2017-09-24T07:14:05.770Z,22.88
2017-09-24T07:15:14.466Z,22.94
2017-09-24T07:16:23.802Z,22.9
2017-09-24T07:17:32.819Z,22.91
2017-09-24T07:18:41.835Z,22.85
2017-09-24T07:19:50.853Z,23
2017-09-24T07:20:59.550Z,22.93
2017-09-24T07:22:08.249Z,22.85
2017-09-24T07:23:16.944Z,22.96
2017-09-24T07:24:25.959Z,22.94
2017-09-24T07:25:35.931Z,22.96
2017-09-24T07:26:44.948Z,22.96
2017-09-24T07:27:54.600Z,22.88
2017-09-24T07:29:03.294Z,22.98
2017-09-24T07:30:11.988Z,22.94
2017-09-24T07:31:21.321Z,22.88
2017-09-24T07:32:30.039Z,22.96
2017-09-24T07:33:39.667Z,22.98
2017-09-24T07:34:48.682Z,22.93
2017-09-24T07:35:57.697Z,23.05
2017-09-24T07:37:07.033Z,22.93
2017-09-24T07:38:16.052Z,22.87
2017-09-24T07:39:24.748Z,22.94
2017-09-24T07:40:34.403Z,22.94
2017-09-24T07:41:43.737Z,23.02
2017-09-24T07:42:52.436Z,22.99
2017-09-24T07:44:01.456Z,22.98
2017-09-24T07:45:10.791Z,23.03
2017-09-24T07:46:19.490Z,23
2017-09-24T07:47:28.826Z,22.98
2017-09-24T07:48:38.481Z,23.02
2017-09-24T07:49:48.132Z,23
2017-09-24T07:50:57.478Z,23.05
2017-09-24T07:52:06.817Z,23.06
2017-09-24T07:53:15.832Z,23.03
2017-09-24T07:54:24.527Z,23.02
2017-09-24T07:55:33.540Z,23.1
2017-09-24T07:56:42.555Z,23.06
2017-09-24T07:57:51.573Z,23.12
2017-09-24T07:59:00.587Z,23.18
2017-09-24T08:00:09.282Z,23.15
2017-09-24T08:01:18.298Z,23.17
2017-09-24T08:02:27.638Z,23.13
2017-09-24T08:03:36.333Z,23.23
2017-09-24T08:04:45.025Z,23.24
2017-09-24T08:05:54.051Z,23.23
2017-09-24T08:07:03.419Z,23.32
2017-09-24T08:08:12.723Z,23.36
2017-09-24T08:09:22.064Z,23.36
2017-09-24T08:10:30.761Z,23.46
2017-09-24T08:11:39.773Z,23.44
2017-09-24T08:12:48.483Z,23.44
2017-09-24T08:13:57.500Z,23.51
2017-09-24T08:15:06.196Z,23.48
2017-09-24T08:16:14.890Z,23.58
2017-09-24T08:17:23.907Z,23.58
2017-09-24T08:18:32.919Z,23.55
2017-09-24T08:19:42.253Z,23.58
2017-09-24T08:20:50.946Z,23.59
2017-09-24T08:21:59.960Z,23.59
2017-09-24T08:23:09.296Z,23.63
2017-09-24T08:24:18.313Z,23.71
2017-09-24T08:25:27.006Z,23.8
2017-09-24T08:26:36.020Z,23.78
2017-09-24T08:27:45.355Z,23.77
2017-09-24T08:28:54.373Z,23.83
2017-09-24T08:30:03.394Z,23.74
2017-09-24T08:31:12.092Z,23.88
2017-09-24T08:32:21.110Z,23.91
2017-09-24T08:33:30.134Z,23.92
2017-09-24T08:34:39.465Z,23.96
2017-09-24T08:35:48.478Z,24.01
2017-09-24T08:36:58.137Z,23.99
2017-09-24T08:38:07.151Z,23.98
2017-09-24T08:39:16.486Z,24.13
2017-09-24T08:40:25.499Z,24.06
2017-09-24T08:41:34.837Z,24.21
2017-09-24T08:42:43.857Z,24.14
2017-09-24T08:43:52.558Z,24.21
2017-09-24T08:45:01.257Z,24.17
2017-09-24T08:46:10.281Z,24.35
2017-09-24T08:47:19.648Z,24.32
2017-09-24T08:48:28.350Z,24.3
2017-09-24T08:49:37.396Z,24.28
2017-09-24T08:50:46.736Z,24.33
2017-09-24T08:51:55.439Z,24.38
2017-09-24T08:53:04.464Z,24.42
2017-09-24T08:54:13.488Z,24.4
2017-09-24T08:55:22.508Z,24.5
2017-09-24T08:56:31.208Z,24.58
2017-09-24T08:57:39.904Z,24.6
2017-09-24T08:58:48.925Z,24.6
2017-09-24T08:59:57.621Z,24.69
2017-09-24T09:01:06.325Z,24.7
2017-09-24T09:02:15.021Z,24.77
2017-09-24T09:03:23.721Z,24.88
2017-09-24T09:04:33.064Z,24.93
2017-09-24T09:05:42.081Z,24.86
2017-09-24T09:06:52.057Z,25.06
2017-09-24T09:08:01.400Z,24.98
2017-09-24T09:09:10.417Z,25.17
2017-09-24T09:10:19.751Z,25.22
2017-09-24T09:11:29.091Z,25.35
2017-09-24T09:12:38.430Z,25.32
2017-09-24T09:13:47.130Z,25.43
2017-09-24T09:14:56.484Z,25.51
2017-09-24T09:16:05.507Z,25.59
2017-09-24T09:17:14.524Z,25.53
2017-09-24T09:18:23.549Z,25.63
2017-09-24T09:19:32.887Z,25.8
2017-09-24T09:20:41.588Z,25.77
2017-09-24T09:21:50.605Z,25.85
2017-09-24T09:22:59.301Z,25.9
2017-09-24T09:24:08.640Z,26.13
2017-09-24T09:25:17.337Z,26.31
2017-09-24T09:26:26.034Z,26.48
2017-09-24T09:27:35.053Z,26.75
2017-09-24T09:28:43.753Z,26.96
2017-09-24T09:29:52.454Z,27.11
2017-09-24T09:31:02.110Z,27.4
2017-09-24T09:32:11.132Z,27.7
2017-09-24T09:33:19.833Z,27.89
2017-09-24T09:34:29.165Z,28.02
2017-09-24T09:35:37.862Z,28.27
2017-09-24T09:36:46.880Z,28.39
2017-09-24T09:37:56.537Z,28.54
2017-09-24T09:39:05.556Z,28.66
2017-09-24T09:40:14.572Z,28.75
2017-09-24T09:41:23.273Z,28.89
2017-09-24T09:42:32.289Z,28.89
2017-09-24T09:43:41.308Z,28.88
2017-09-24T09:44:50.329Z,28.91
2017-09-24T09:45:59.346Z,28.79
2017-09-24T09:47:08.045Z,28.76
2017-09-24T09:48:17.063Z,28.72
2017-09-24T09:49:26.081Z,28.66
2017-09-24T09:50:35.097Z,28.66
2017-09-24T09:51:43.793Z,28.64
2017-09-24T09:52:52.489Z,28.75
2017-09-24T09:54:01.188Z,28.91
2017-09-24T09:55:10.207Z,28.91
2017-09-24T09:56:19.228Z,28.72
2017-09-24T09:57:28.891Z,28.63
2017-09-24T09:58:38.230Z,28.63
2017-09-24T09:59:47.249Z,28.49
2017-09-24T10:00:56.267Z,28.35
2017-09-24T10:02:05.921Z,28.15
2017-09-24T10:03:15.579Z,28.01
2017-09-24T10:04:24.598Z,28.05
2017-09-24T10:05:33.298Z,27.85
2017-09-24T10:06:42.315Z,27.78
2017-09-24T10:07:51.011Z,27.54
2017-09-24T10:08:59.709Z,27.68
2017-09-24T10:10:08.409Z,27.89
2017-09-24T10:11:17.423Z,27.92
2017-09-24T10:12:26.767Z,27.9
2017-09-24T10:13:35.466Z,27.78
2017-09-24T10:14:44.488Z,27.55
2017-09-24T10:15:54.143Z,27.59
2017-09-24T10:17:03.161Z,27.52
2017-09-24T10:18:12.500Z,27.49
2017-09-24T10:19:21.515Z,27.58
2017-09-24T10:20:30.540Z,27.59
2017-09-24T10:21:39.881Z,27.48
2017-09-24T10:22:49.537Z,27.45
2017-09-24T10:23:58.882Z,27.47
2017-09-24T10:25:07.904Z,27.45
2017-09-24T10:26:16.605Z,27.52
2017-09-24T10:27:26.265Z,27.65
2017-09-24T10:28:35.600Z,27.74
2017-09-24T10:29:44.630Z,27.74
2017-09-24T10:30:54.008Z,27.74
2017-09-24T10:32:03.343Z,27.78
2017-09-24T10:33:12.364Z,27.8
2017-09-24T10:34:21.702Z,27.73
2017-09-24T10:35:30.401Z,27.78
2017-09-24T10:36:40.066Z,27.87
2017-09-24T10:37:49.402Z,27.8
2017-09-24T10:38:58.741Z,28.04
2017-09-24T10:40:07.439Z,28.11
2017-09-24T10:41:16.139Z,28.2
2017-09-24T10:42:25.158Z,28.17
2017-09-24T10:43:33.858Z,28.07
2017-09-24T10:44:42.556Z,27.96
2017-09-24T10:45:51.254Z,27.92
2017-09-24T10:47:00.273Z,27.92
2017-09-24T10:48:09.617Z,27.89
2017-09-24T10:49:19.271Z,27.8
2017-09-24T10:50:28.288Z,27.82
2017-09-24T10:51:37.305Z,27.68
2017-09-24T10:52:46.322Z,27.67
2017-09-24T10:53:55.337Z,27.74
2017-09-24T10:55:04.674Z,27.78
2017-09-24T10:56:13.691Z,27.71
2017-09-24T10:57:23.352Z,27.8
2017-09-24T10:58:32.048Z,27.83
2017-09-24T10:59:41.066Z,27.78
2017-09-24T11:00:49.766Z,27.75
2017-09-24T11:01:59.104Z,27.71
2017-09-24T11:03:08.120Z,27.71
2017-09-24T11:04:17.457Z,27.6
2017-09-24T11:05:26.476Z,27.54
2017-09-24T11:06:35.176Z,27.52
2017-09-24T11:07:44.196Z,27.52
2017-09-24T11:08:53.214Z,27.54
2017-09-24T11:10:01.912Z,27.6
2017-09-24T11:11:11.251Z,27.71
2017-09-24T11:12:20.268Z,27.87
2017-09-24T11:13:29.605Z,28.17
2017-09-24T11:14:38.307Z,28.51
2017-09-24T11:15:47.325Z,28.91
2017-09-24T11:16:56.342Z,29.45
2017-09-24T11:18:05.360Z,29.91
2017-09-24T11:19:14.381Z,30.25
2017-09-24T11:20:23.079Z,30.5
2017-09-24T11:21:31.782Z,30.7
2017-09-24T11:22:41.120Z,30.68
2017-09-24T11:23:50.140Z,30.91
2017-09-24T11:24:59.159Z,31.17
2017-09-24T11:26:08.178Z,31.37
2017-09-24T11:27:16.880Z,31.76
2017-09-24T11:28:25.901Z,32.12
2017-09-24T11:29:34.929Z,32.34
2017-09-24T11:30:43.950Z,32.77
2017-09-24T11:31:52.976Z,33.04
2017-09-24T11:33:01.998Z,33.27
2017-09-24T11:34:10.700Z,33.53
2017-09-24T11:35:19.722Z,33.84
2017-09-24T11:36:28.742Z,34.05
2017-09-24T11:37:37.769Z,34.2
2017-09-24T11:38:46.465Z,34.51
2017-09-24T11:39:55.489Z,34.7
2017-09-24T11:41:04.512Z,34.8
2017-09-24T11:42:13.533Z,35.04
2017-09-24T11:43:22.559Z,35.12
2017-09-24T11:44:31.582Z,35.18
2017-09-24T11:45:40.921Z,35.3
2017-09-24T11:46:49.623Z,35.49
2017-09-24T11:47:58.328Z,35.58
2017-09-24T11:49:07.350Z,35.7
2017-09-24T11:50:16.372Z,35.64
2017-09-24T11:51:25.396Z,35.55
2017-09-24T11:52:34.750Z,35.34
2017-09-24T11:53:44.094Z,35.05
2017-09-24T11:54:52.798Z,34.61
2017-09-24T11:56:01.818Z,34.27
2017-09-24T11:57:11.799Z,33.86
2017-09-24T11:58:20.499Z,33.46
2017-09-24T11:59:29.840Z,33.07
2017-09-24T12:00:38.541Z,32.75
2017-09-24T12:01:47.569Z,32.46
2017-09-24T12:02:57.235Z,32.11
2017-09-24T12:04:05.934Z,31.92
2017-09-24T12:05:15.272Z,31.62
2017-09-24T12:06:24.291Z,31.37
2017-09-24T12:07:32.995Z,31.21
2017-09-24T12:08:42.012Z,30.84
2017-09-24T12:09:50.713Z,30.7
2017-09-24T12:10:59.735Z,30.51
2017-09-24T12:12:08.433Z,30.34
2017-09-24T12:13:17.455Z,30.12
2017-09-24T12:14:26.795Z,29.9
2017-09-24T12:15:35.813Z,29.78
2017-09-24T12:16:44.514Z,29.63
2017-09-24T12:17:53.856Z,29.5
2017-09-24T12:19:02.875Z,29.45
2017-09-24T12:20:12.242Z,29.39
2017-09-24T12:21:21.592Z,29.23
2017-09-24T12:22:30.612Z,29.14
2017-09-24T12:23:39.970Z,29.07
2017-09-24T12:24:48.665Z,28.93
2017-09-24T12:25:57.365Z,28.89
2017-09-24T12:27:06.385Z,28.81
2017-09-24T12:28:16.047Z,28.76
2017-09-24T12:29:25.065Z,28.76
2017-09-24T12:30:34.114Z,28.64
2017-09-24T12:31:42.811Z,28.62
2017-09-24T12:32:51.509Z,28.59
2017-09-24T12:34:00.857Z,28.51
2017-09-24T12:35:10.195Z,28.42
2017-09-24T12:36:19.530Z,28.38
2017-09-24T12:37:28.870Z,28.22
2017-09-24T12:38:37.895Z,28.12
2017-09-24T12:39:47.236Z,28.08
2017-09-24T12:40:56.254Z,27.98
2017-09-24T12:42:05.274Z,27.9
2017-09-24T12:43:14.289Z,27.96
2017-09-24T12:44:22.989Z,27.83
2017-09-24T12:45:32.008Z,27.71
2017-09-24T12:46:41.026Z,27.65
2017-09-24T12:47:49.724Z,27.54
2017-09-24T12:48:58.741Z,27.65
2017-09-24T12:50:07.761Z,27.45
2017-09-24T12:51:16.459Z,27.49
2017-09-24T12:52:25.475Z,27.39
2017-09-24T12:53:34.819Z,27.35
2017-09-24T12:54:44.155Z,27.37
2017-09-24T12:55:53.173Z,27.22
2017-09-24T12:57:02.191Z,27.17
2017-09-24T12:58:11.228Z,27.17
2017-09-24T12:59:20.222Z,27.2
2017-09-24T13:00:29.242Z,27.18
2017-09-24T13:01:37.939Z,27.14
2017-09-24T13:02:46.957Z,27.11
2017-09-24T13:03:55.660Z,27.08
2017-09-24T13:05:04.360Z,27.07
2017-09-24T13:06:13.377Z,27.03
2017-09-24T13:07:22.394Z,26.99
2017-09-24T13:08:31.091Z,27
2017-09-24T13:09:40.108Z,26.83
2017-09-24T13:10:48.808Z,26.9
2017-09-24T13:11:58.462Z,26.83
2017-09-24T13:13:07.801Z,26.74
2017-09-24T13:14:16.503Z,26.65
2017-09-24T13:15:26.159Z,26.62
2017-09-24T13:16:34.858Z,26.6
2017-09-24T13:17:43.873Z,26.45
2017-09-24T13:18:52.890Z,26.4
2017-09-24T13:20:01.588Z,26.33
2017-09-24T13:21:10.604Z,26.28
2017-09-24T13:22:19.943Z,26.29
2017-09-24T13:23:28.962Z,26.21
2017-09-24T13:24:37.982Z,26.1
2017-09-24T13:25:47.000Z,26.03
2017-09-24T13:26:56.334Z,25.96
2017-09-24T13:28:05.030Z,25.98
2017-09-24T13:29:14.048Z,25.9
2017-09-24T13:30:23.067Z,25.83
2017-09-24T13:31:31.764Z,25.93
2017-09-24T13:32:40.783Z,25.87
2017-09-24T13:33:49.798Z,25.78
2017-09-24T13:34:59.128Z,25.78
2017-09-24T13:36:08.146Z,25.7
2017-09-24T13:37:17.161Z,25.63
2017-09-24T13:38:26.496Z,25.65
2017-09-24T13:39:35.518Z,25.66
2017-09-24T13:40:44.213Z,25.68
2017-09-24T13:41:53.550Z,25.62
2017-09-24T13:43:02.565Z,25.6
2017-09-24T13:44:12.224Z,25.62
2017-09-24T13:45:20.923Z,25.58
2017-09-24T13:46:29.617Z,25.54
2017-09-24T13:47:38.314Z,25.51
2017-09-24T13:48:47.655Z,25.48
2017-09-24T13:49:56.352Z,25.46
2017-09-24T13:51:05.368Z,25.46
2017-09-24T13:52:15.025Z,25.4
2017-09-24T13:53:24.044Z,25.44
2017-09-24T13:54:33.061Z,25.41
2017-09-24T13:55:42.085Z,25.4
2017-09-24T13:56:51.105Z,25.35
2017-09-24T13:58:00.125Z,25.32
2017-09-24T13:59:09.147Z,25.43
2017-09-24T14:00:18.165Z,25.33
2017-09-24T14:01:27.499Z,25.38
2017-09-24T14:02:36.517Z,25.33
2017-09-24T14:03:45.531Z,25.35
2017-09-24T14:04:54.866Z,25.31
2017-09-24T14:06:04.528Z,25.23
2017-09-24T14:07:13.226Z,25.21
2017-09-24T14:08:22.891Z,25.31
2017-09-24T14:09:32.230Z,25.23
2017-09-24T14:10:41.247Z,25.25
2017-09-24T14:11:50.270Z,25.23
2017-09-24T14:12:59.935Z,25.17
2017-09-24T14:14:09.596Z,25.23
2017-09-24T14:15:18.290Z,25.22
2017-09-24T14:16:27.623Z,25.22
2017-09-24T14:17:36.638Z,25.22
2017-09-24T14:18:45.656Z,25.26
2017-09-24T14:19:54.352Z,25.26
2017-09-24T14:21:03.687Z,25.21
2017-09-24T14:22:12.711Z,25.18
2017-09-24T14:23:21.729Z,25.23
2017-09-24T14:24:31.707Z,25.21
2017-09-24T14:25:41.044Z,25.26
2017-09-24T14:26:49.740Z,25.22
2017-09-24T14:27:58.756Z,25.17
2017-09-24T14:29:08.095Z,25.23
2017-09-24T14:30:16.791Z,25.29
2017-09-24T14:31:25.805Z,25.29
2017-09-24T14:32:35.463Z,25.23
2017-09-24T14:33:44.799Z,25.21
2017-09-24T14:34:54.133Z,25.18
2017-09-24T14:36:03.148Z,25.16
2017-09-24T14:37:12.165Z,25.17
2017-09-24T14:38:20.864Z,25.22
2017-09-24T14:39:29.882Z,25.21
2017-09-24T14:40:38.899Z,25.11
2017-09-24T14:41:48.252Z,25.26
2017-09-24T14:42:57.267Z,25.21
2017-09-24T14:44:06.286Z,25.18
2017-09-24T14:45:15.943Z,25.16
2017-09-24T14:46:25.278Z,25.13
2017-09-24T14:47:34.616Z,25.17
2017-09-24T14:48:43.317Z,25.17
2017-09-24T14:49:52.333Z,25.18
2017-09-24T14:51:01.033Z,25.03
2017-09-24T14:52:09.736Z,25.16
2017-09-24T14:53:19.076Z,25.01
2017-09-24T14:54:28.412Z,25.01